Hovedside
METAR-TAF:

METAR-TAF

Lufthavner :

Kunming, Kina

Kunming Changshui internasjonale lufthavn

breddegrad: 25-01N, lengdegrad: 102-41E, høyde over havet: 1892 m

Gjeldene værobservasjon

Denne rapporten ble laget for 31 minutter siden, klokken 18:00 UTC
Vind 6 kt fra Sør-sørvest
Temperatur 16°C
Luftfuktighet 55%
Trykk 1019 hPa
Sikt 10 km eller mer
ingen skyer under 1500 m og ingen bygeskyer

METAR: ZPPP 241800Z 21003MPS CAVOK 16/07 Q1019 NOSIG

Tid: 02:31 (18:31 UTC)

Varsel

Denne rapporten ble laget for 5 timer og 28 minutter siden, klokken 13:03 UTC
Varsel gyldig fra 24. klokken 18 UTC til 25. klokken 18 UTC
Vind 8 kt fra Nordøst
Sikt 10 km eller mer
Spredte skyer i en høyde av 2600 ft
Blir
fra 25. klokken 02 UTC til 25. klokken 03 UTC
Vind 12 kt fra Sørvest

TAF: ZPPP 241303Z 2418/2518 04004MPS 9999 SCT026 TX25/2508Z TN12/2423Z BECMG 2502/2503 22006MPS

Værobservasjoner og værvarsel for over 4000 flyplasser (METAR- og TAF-rapporter).

Tilgjengelige stasjoner er representert av de røde og gule prikkene på kartet.

Hold musepekeren over prikken for å se navnet på stasjonen.

Klikk så for å se værobservasjoner og -varsler.

For å forandre kartet kan du klikke på den grønne knappen med svart kryss for å zoome inn, på den grønne knappen med strek for å zoome ut, eller på de grønne pilene for å se tilstøtende kart.


METAR-TAF: